sensor_id;sensor_type;location;lat;lon;timestamp;temperature;humidity
22968;DHT22;11650;48.106;-1.696;2023-12-14T00:01:27;8.30;99.90
22968;DHT22;11650;48.106;-1.696;2023-12-14T00:03:52;8.40;99.90
22968;DHT22;11650;48.106;-1.696;2023-12-14T00:06:18;8.40;99.90
22968;DHT22;11650;48.106;-1.696;2023-12-14T00:08:43;8.30;99.90
22968;DHT22;11650;48.106;-1.696;2023-12-14T00:11:09;8.30;99.90
22968;DHT22;11650;48.106;-1.696;2023-12-14T00:13:35;8.30;99.90
22968;DHT22;11650;48.106;-1.696;2023-12-14T00:16:01;8.30;99.90
22968;DHT22;11650;48.106;-1.696;2023-12-14T00:18:27;8.30;99.90
22968;DHT22;11650;48.106;-1.696;2023-12-14T00:20:52;8.30;99.90
22968;DHT22;11650;48.106;-1.696;2023-12-14T00:23:19;8.30;99.90
22968;DHT22;11650;48.106;-1.696;2023-12-14T00:25:45;8.30;99.90
22968;DHT22;11650;48.106;-1.696;2023-12-14T00:28:10;8.30;99.90
22968;DHT22;11650;48.106;-1.696;2023-12-14T00:30:36;8.20;99.90
22968;DHT22;11650;48.106;-1.696;2023-12-14T00:33:01;8.20;99.90
22968;DHT22;11650;48.106;-1.696;2023-12-14T00:35:27;8.30;99.90
22968;DHT22;11650;48.106;-1.696;2023-12-14T00:37:52;8.20;99.90
22968;DHT22;11650;48.106;-1.696;2023-12-14T00:40:18;8.10;99.90
22968;DHT22;11650;48.106;-1.696;2023-12-14T00:42:43;8.10;99.90
22968;DHT22;11650;48.106;-1.696;2023-12-14T00:45:09;8.10;99.90
22968;DHT22;11650;48.106;-1.696;2023-12-14T00:47:34;8.10;99.90
22968;DHT22;11650;48.106;-1.696;2023-12-14T00:50:00;8.10;99.90
22968;DHT22;11650;48.106;-1.696;2023-12-14T00:52:25;8.10;99.90
22968;DHT22;11650;48.106;-1.696;2023-12-14T00:54:51;8.00;99.90
22968;DHT22;11650;48.106;-1.696;2023-12-14T00:57:16;8.00;99.90
22968;DHT22;11650;48.106;-1.696;2023-12-14T00:59:42;8.00;99.90
22968;DHT22;11650;48.106;-1.696;2023-12-14T01:02:08;8.00;99.90
22968;DHT22;11650;48.106;-1.696;2023-12-14T01:04:33;7.90;99.90
22968;DHT22;11650;48.106;-1.696;2023-12-14T01:06:59;7.90;99.90
22968;DHT22;11650;48.106;-1.696;2023-12-14T01:09:24;7.90;99.90
22968;DHT22;11650;48.106;-1.696;2023-12-14T01:11:50;7.90;99.90
22968;DHT22;11650;48.106;-1.696;2023-12-14T01:14:15;7.90;99.90
22968;DHT22;11650;48.106;-1.696;2023-12-14T01:16:41;7.90;99.90
22968;DHT22;11650;48.106;-1.696;2023-12-14T01:19:06;7.80;99.90
22968;DHT22;11650;48.106;-1.696;2023-12-14T01:21:33;7.80;99.90
22968;DHT22;11650;48.106;-1.696;2023-12-14T01:23:58;7.80;99.90
22968;DHT22;11650;48.106;-1.696;2023-12-14T01:26:25;7.70;99.90
22968;DHT22;11650;48.106;-1.696;2023-12-14T01:28:51;7.70;99.90
22968;DHT22;11650;48.106;-1.696;2023-12-14T01:31:16;7.60;99.90
22968;DHT22;11650;48.106;-1.696;2023-12-14T01:33:42;7.50;99.90
22968;DHT22;11650;48.106;-1.696;2023-12-14T01:36:07;7.40;99.90
22968;DHT22;11650;48.106;-1.696;2023-12-14T01:38:33;7.30;99.90
22968;DHT22;11650;48.106;-1.696;2023-12-14T01:40:58;7.30;99.90
22968;DHT22;11650;48.106;-1.696;2023-12-14T01:43:24;7.20;99.90
22968;DHT22;11650;48.106;-1.696;2023-12-14T01:45:50;7.10;99.90
22968;DHT22;11650;48.106;-1.696;2023-12-14T01:48:16;7.00;99.90
22968;DHT22;11650;48.106;-1.696;2023-12-14T01:50:41;7.00;99.90
22968;DHT22;11650;48.106;-1.696;2023-12-14T01:53:07;6.90;99.90
22968;DHT22;11650;48.106;-1.696;2023-12-14T01:55:32;6.80;99.90
22968;DHT22;11650;48.106;-1.696;2023-12-14T01:57:58;6.70;99.90
22968;DHT22;11650;48.106;-1.696;2023-12-14T02:02:52;6.60;99.90
22968;DHT22;11650;48.106;-1.696;2023-12-14T02:05:18;6.50;99.90
22968;DHT22;11650;48.106;-1.696;2023-12-14T02:07:43;6.50;99.90
22968;DHT22;11650;48.106;-1.696;2023-12-14T02:10:09;6.50;99.90
22968;DHT22;11650;48.106;-1.696;2023-12-14T02:12:34;6.40;99.90
22968;DHT22;11650;48.106;-1.696;2023-12-14T02:15:00;6.40;99.90
22968;DHT22;11650;48.106;-1.696;2023-12-14T02:17:25;6.40;99.90
22968;DHT22;11650;48.106;-1.696;2023-12-14T02:19:51;6.40;99.90
22968;DHT22;11650;48.106;-1.696;2023-12-14T02:22:17;6.30;99.90
22968;DHT22;11650;48.106;-1.696;2023-12-14T02:24:43;6.30;99.90
22968;DHT22;11650;48.106;-1.696;2023-12-14T02:27:08;6.30;99.90
22968;DHT22;11650;48.106;-1.696;2023-12-14T02:29:34;6.20;99.90
22968;DHT22;11650;48.106;-1.696;2023-12-14T02:31:59;6.20;99.90
22968;DHT22;11650;48.106;-1.696;2023-12-14T02:34:24;6.20;99.90
22968;DHT22;11650;48.106;-1.696;2023-12-14T02:36:50;6.10;99.90
22968;DHT22;11650;48.106;-1.696;2023-12-14T02:39:15;6.10;99.90
22968;DHT22;11650;48.106;-1.696;2023-12-14T02:41:41;6.10;99.90
22968;DHT22;11650;48.106;-1.696;2023-12-14T02:44:06;6.00;99.90
22968;DHT22;11650;48.106;-1.696;2023-12-14T02:46:32;6.00;99.90
22968;DHT22;11650;48.106;-1.696;2023-12-14T02:48:58;5.90;99.90
22968;DHT22;11650;48.106;-1.696;2023-12-14T02:51:23;5.90;99.90
22968;DHT22;11650;48.106;-1.696;2023-12-14T02:53:49;5.90;99.90
22968;DHT22;11650;48.106;-1.696;2023-12-14T02:56:14;5.80;99.90
22968;DHT22;11650;48.106;-1.696;2023-12-14T02:58:40;5.80;99.90
22968;DHT22;11650;48.106;-1.696;2023-12-14T03:01:05;5.80;99.90
22968;DHT22;11650;48.106;-1.696;2023-12-14T03:03:31;5.80;99.90
22968;DHT22;11650;48.106;-1.696;2023-12-14T03:05:56;5.80;99.90
22968;DHT22;11650;48.106;-1.696;2023-12-14T03:08:22;5.80;99.90
22968;DHT22;11650;48.106;-1.696;2023-12-14T03:10:47;5.70;99.90
22968;DHT22;11650;48.106;-1.696;2023-12-14T03:13:13;5.70;99.90
22968;DHT22;11650;48.106;-1.696;2023-12-14T03:15:38;5.70;99.90
22968;DHT22;11650;48.106;-1.696;2023-12-14T03:18:03;5.60;99.90
22968;DHT22;11650;48.106;-1.696;2023-12-14T03:20:29;5.60;99.90
22968;DHT22;11650;48.106;-1.696;2023-12-14T03:22:55;5.60;99.90
22968;DHT22;11650;48.106;-1.696;2023-12-14T03:25:21;5.60;99.90
22968;DHT22;11650;48.106;-1.696;2023-12-14T03:27:46;5.60;99.90
22968;DHT22;11650;48.106;-1.696;2023-12-14T03:30:12;5.60;99.90
22968;DHT22;11650;48.106;-1.696;2023-12-14T03:32:37;5.50;99.90
22968;DHT22;11650;48.106;-1.696;2023-12-14T03:35:03;5.60;99.90
22968;DHT22;11650;48.106;-1.696;2023-12-14T03:37:29;5.50;99.90
22968;DHT22;11650;48.106;-1.696;2023-12-14T03:39:54;5.50;99.90
22968;DHT22;11650;48.106;-1.696;2023-12-14T03:42:20;5.50;99.90
22968;DHT22;11650;48.106;-1.696;2023-12-14T03:44:46;5.50;99.90
22968;DHT22;11650;48.106;-1.696;2023-12-14T03:47:12;5.50;99.90
22968;DHT22;11650;48.106;-1.696;2023-12-14T03:49:37;5.50;99.90
22968;DHT22;11650;48.106;-1.696;2023-12-14T03:52:04;5.50;99.90
22968;DHT22;11650;48.106;-1.696;2023-12-14T03:54:29;5.50;99.90
22968;DHT22;11650;48.106;-1.696;2023-12-14T03:56:55;5.50;99.90
22968;DHT22;11650;48.106;-1.696;2023-12-14T03:59:20;5.50;99.90
22968;DHT22;11650;48.106;-1.696;2023-12-14T04:01:46;5.50;99.90
22968;DHT22;11650;48.106;-1.696;2023-12-14T04:04:11;5.50;99.90
22968;DHT22;11650;48.106;-1.696;2023-12-14T04:06:37;5.40;99.90
22968;DHT22;11650;48.106;-1.696;2023-12-14T04:09:02;5.40;99.90
22968;DHT22;11650;48.106;-1.696;2023-12-14T04:11:28;5.40;99.90
22968;DHT22;11650;48.106;-1.696;2023-12-14T04:13:53;5.40;99.90
22968;DHT22;11650;48.106;-1.696;2023-12-14T04:16:20;5.30;99.90
22968;DHT22;11650;48.106;-1.696;2023-12-14T04:18:46;5.20;99.90
22968;DHT22;11650;48.106;-1.696;2023-12-14T04:21:11;5.20;99.90
22968;DHT22;11650;48.106;-1.696;2023-12-14T04:23:37;5.10;99.90
22968;DHT22;11650;48.106;-1.696;2023-12-14T04:26:02;5.10;99.90
22968;DHT22;11650;48.106;-1.696;2023-12-14T04:28:28;5.20;99.90
22968;DHT22;11650;48.106;-1.696;2023-12-14T04:30:53;5.10;99.90
22968;DHT22;11650;48.106;-1.696;2023-12-14T04:33:19;5.10;99.90
22968;DHT22;11650;48.106;-1.696;2023-12-14T04:35:44;5.10;99.90
22968;DHT22;11650;48.106;-1.696;2023-12-14T04:38:10;5.00;99.90
22968;DHT22;11650;48.106;-1.696;2023-12-14T04:40:35;5.00;99.90
22968;DHT22;11650;48.106;-1.696;2023-12-14T04:43:01;5.00;99.90
22968;DHT22;11650;48.106;-1.696;2023-12-14T04:45:26;5.00;99.90
22968;DHT22;11650;48.106;-1.696;2023-12-14T04:47:52;5.00;99.90
22968;DHT22;11650;48.106;-1.696;2023-12-14T04:50:17;5.00;99.90
22968;DHT22;11650;48.106;-1.696;2023-12-14T04:52:43;5.10;99.90
22968;DHT22;11650;48.106;-1.696;2023-12-14T04:55:08;5.10;99.90
22968;DHT22;11650;48.106;-1.696;2023-12-14T04:57:34;5.20;99.90
22968;DHT22;11650;48.106;-1.696;2023-12-14T04:59:59;5.10;99.90
22968;DHT22;11650;48.106;-1.696;2023-12-14T05:02:25;5.10;99.90
22968;DHT22;11650;48.106;-1.696;2023-12-14T05:04:50;5.10;99.90
22968;DHT22;11650;48.106;-1.696;2023-12-14T05:07:16;5.10;99.90
22968;DHT22;11650;48.106;-1.696;2023-12-14T05:09:41;5.10;99.90
22968;DHT22;11650;48.106;-1.696;2023-12-14T05:12:07;5.00;99.90
22968;DHT22;11650;48.106;-1.696;2023-12-14T05:14:32;5.10;99.90
22968;DHT22;11650;48.106;-1.696;2023-12-14T05:16:58;5.00;99.90
22968;DHT22;11650;48.106;-1.696;2023-12-14T05:19:23;5.00;99.90
22968;DHT22;11650;48.106;-1.696;2023-12-14T05:21:49;5.00;99.90
22968;DHT22;11650;48.106;-1.696;2023-12-14T05:24:14;5.00;99.90
22968;DHT22;11650;48.106;-1.696;2023-12-14T05:26:40;5.00;99.90
22968;DHT22;11650;48.106;-1.696;2023-12-14T05:29:05;5.10;99.90
22968;DHT22;11650;48.106;-1.696;2023-12-14T05:31:31;5.00;99.90
22968;DHT22;11650;48.106;-1.696;2023-12-14T05:33:56;5.10;99.90
22968;DHT22;11650;48.106;-1.696;2023-12-14T05:36:22;5.10;99.90
22968;DHT22;11650;48.106;-1.696;2023-12-14T05:38:47;5.10;99.90
22968;DHT22;11650;48.106;-1.696;2023-12-14T05:41:13;5.10;99.90
22968;DHT22;11650;48.106;-1.696;2023-12-14T05:43:39;5.10;99.90
22968;DHT22;11650;48.106;-1.696;2023-12-14T05:46:04;5.10;99.90
22968;DHT22;11650;48.106;-1.696;2023-12-14T05:48:30;5.10;99.90
22968;DHT22;11650;48.106;-1.696;2023-12-14T05:50:56;5.10;99.90
22968;DHT22;11650;48.106;-1.696;2023-12-14T05:53:21;5.20;99.90
22968;DHT22;11650;48.106;-1.696;2023-12-14T05:55:47;5.20;99.90
22968;DHT22;11650;48.106;-1.696;2023-12-14T05:58:12;5.20;99.90
22968;DHT22;11650;48.106;-1.696;2023-12-14T06:00:38;5.20;99.90
22968;DHT22;11650;48.106;-1.696;2023-12-14T06:03:05;5.20;99.90
22968;DHT22;11650;48.106;-1.696;2023-12-14T06:05:31;5.30;99.90
22968;DHT22;11650;48.106;-1.696;2023-12-14T06:07:56;5.20;99.90
22968;DHT22;11650;48.106;-1.696;2023-12-14T06:10:22;5.20;99.90
22968;DHT22;11650;48.106;-1.696;2023-12-14T06:12:47;5.20;99.90
22968;DHT22;11650;48.106;-1.696;2023-12-14T06:15:13;5.20;99.90
22968;DHT22;11650;48.106;-1.696;2023-12-14T06:17:38;5.20;99.90
22968;DHT22;11650;48.106;-1.696;2023-12-14T06:20:06;5.30;99.90
22968;DHT22;11650;48.106;-1.696;2023-12-14T06:22:37;5.20;99.90
22968;DHT22;11650;48.106;-1.696;2023-12-14T06:25:03;5.20;99.90
22968;DHT22;11650;48.106;-1.696;2023-12-14T06:27:28;5.20;99.90
22968;DHT22;11650;48.106;-1.696;2023-12-14T06:29:54;5.20;99.90
22968;DHT22;11650;48.106;-1.696;2023-12-14T06:32:19;5.20;99.90
22968;DHT22;11650;48.106;-1.696;2023-12-14T06:34:45;5.30;99.90
22968;DHT22;11650;48.106;-1.696;2023-12-14T06:37:10;5.30;99.90
22968;DHT22;11650;48.106;-1.696;2023-12-14T06:39:36;5.30;99.90
22968;DHT22;11650;48.106;-1.696;2023-12-14T06:42:01;5.20;99.90
22968;DHT22;11650;48.106;-1.696;2023-12-14T06:44:27;5.20;99.90
22968;DHT22;11650;48.106;-1.696;2023-12-14T06:46:53;5.20;99.90
22968;DHT22;11650;48.106;-1.696;2023-12-14T06:49:19;5.20;99.90
22968;DHT22;11650;48.106;-1.696;2023-12-14T06:51:45;5.20;99.90
22968;DHT22;11650;48.106;-1.696;2023-12-14T06:54:10;5.20;99.90
22968;DHT22;11650;48.106;-1.696;2023-12-14T06:56:36;5.20;99.90
22968;DHT22;11650;48.106;-1.696;2023-12-14T06:59:02;5.30;99.90
22968;DHT22;11650;48.106;-1.696;2023-12-14T07:01:27;5.30;99.90
22968;DHT22;11650;48.106;-1.696;2023-12-14T07:03:53;5.30;99.90
22968;DHT22;11650;48.106;-1.696;2023-12-14T07:06:18;5.30;99.90
22968;DHT22;11650;48.106;-1.696;2023-12-14T07:08:44;5.30;99.90
22968;DHT22;11650;48.106;-1.696;2023-12-14T07:11:11;5.40;99.90
22968;DHT22;11650;48.106;-1.696;2023-12-14T07:13:37;5.40;99.90
22968;DHT22;11650;48.106;-1.696;2023-12-14T07:16:06;5.50;99.90
22968;DHT22;11650;48.106;-1.696;2023-12-14T07:18:39;5.50;99.90
22968;DHT22;11650;48.106;-1.696;2023-12-14T07:21:05;5.50;99.90
22968;DHT22;11650;48.106;-1.696;2023-12-14T07:23:31;5.50;99.90
22968;DHT22;11650;48.106;-1.696;2023-12-14T07:25:57;5.60;99.90
22968;DHT22;11650;48.106;-1.696;2023-12-14T07:28:23;5.60;99.90
22968;DHT22;11650;48.106;-1.696;2023-12-14T07:30:48;5.60;99.90
22968;DHT22;11650;48.106;-1.696;2023-12-14T07:33:14;5.60;99.90
22968;DHT22;11650;48.106;-1.696;2023-12-14T07:35:39;5.60;99.90
22968;DHT22;11650;48.106;-1.696;2023-12-14T07:38:05;5.70;99.90
22968;DHT22;11650;48.106;-1.696;2023-12-14T07:40:30;5.80;99.90
22968;DHT22;11650;48.106;-1.696;2023-12-14T07:42:56;5.80;99.90
22968;DHT22;11650;48.106;-1.696;2023-12-14T07:45:21;5.80;99.90
22968;DHT22;11650;48.106;-1.696;2023-12-14T07:47:47;5.80;99.90
22968;DHT22;11650;48.106;-1.696;2023-12-14T07:50:12;5.80;99.90
22968;DHT22;11650;48.106;-1.696;2023-12-14T07:52:39;5.80;99.90
22968;DHT22;11650;48.106;-1.696;2023-12-14T07:55:05;5.80;99.90
22968;DHT22;11650;48.106;-1.696;2023-12-14T07:57:30;5.80;99.90
22968;DHT22;11650;48.106;-1.696;2023-12-14T07:59:56;5.90;99.90
22968;DHT22;11650;48.106;-1.696;2023-12-14T08:02:22;5.80;99.90
22968;DHT22;11650;48.106;-1.696;2023-12-14T08:04:47;5.90;99.90
22968;DHT22;11650;48.106;-1.696;2023-12-14T08:07:13;5.90;99.90
22968;DHT22;11650;48.106;-1.696;2023-12-14T08:09:38;5.90;99.90
22968;DHT22;11650;48.106;-1.696;2023-12-14T08:12:04;5.90;99.90
22968;DHT22;11650;48.106;-1.696;2023-12-14T08:14:31;6.00;99.90
22968;DHT22;11650;48.106;-1.696;2023-12-14T08:16:57;6.00;99.90
22968;DHT22;11650;48.106;-1.696;2023-12-14T08:19:22;6.00;99.90
22968;DHT22;11650;48.106;-1.696;2023-12-14T08:21:48;6.00;99.90
22968;DHT22;11650;48.106;-1.696;2023-12-14T08:24:13;6.10;99.90
22968;DHT22;11650;48.106;-1.696;2023-12-14T08:26:39;6.10;99.90
22968;DHT22;11650;48.106;-1.696;2023-12-14T08:29:04;6.20;99.90
22968;DHT22;11650;48.106;-1.696;2023-12-14T08:31:30;6.20;99.90
22968;DHT22;11650;48.106;-1.696;2023-12-14T08:33:55;6.20;99.90
22968;DHT22;11650;48.106;-1.696;2023-12-14T08:36:21;6.20;99.90
22968;DHT22;11650;48.106;-1.696;2023-12-14T08:38:46;6.20;99.90
22968;DHT22;11650;48.106;-1.696;2023-12-14T08:41:13;6.20;99.90
22968;DHT22;11650;48.106;-1.696;2023-12-14T08:43:39;6.30;99.90
22968;DHT22;11650;48.106;-1.696;2023-12-14T08:46:05;6.30;99.90
22968;DHT22;11650;48.106;-1.696;2023-12-14T08:48:30;6.30;99.90
22968;DHT22;11650;48.106;-1.696;2023-12-14T08:50:56;6.30;99.90
22968;DHT22;11650;48.106;-1.696;2023-12-14T08:53:21;6.30;99.90
22968;DHT22;11650;48.106;-1.696;2023-12-14T08:55:47;6.30;99.90
22968;DHT22;11650;48.106;-1.696;2023-12-14T08:58:12;6.40;99.90
22968;DHT22;11650;48.106;-1.696;2023-12-14T09:00:38;6.40;99.90
22968;DHT22;11650;48.106;-1.696;2023-12-14T09:03:04;6.50;99.90
22968;DHT22;11650;48.106;-1.696;2023-12-14T09:05:29;6.50;99.90
22968;DHT22;11650;48.106;-1.696;2023-12-14T09:07:55;6.50;99.90
22968;DHT22;11650;48.106;-1.696;2023-12-14T09:10:22;6.50;99.90
22968;DHT22;11650;48.106;-1.696;2023-12-14T09:12:47;6.60;99.90
22968;DHT22;11650;48.106;-1.696;2023-12-14T09:15:13;6.60;99.90
22968;DHT22;11650;48.106;-1.696;2023-12-14T09:17:41;6.60;99.90
22968;DHT22;11650;48.106;-1.696;2023-12-14T09:20:07;6.70;99.90
22968;DHT22;11650;48.106;-1.696;2023-12-14T09:22:33;6.70;99.90
22968;DHT22;11650;48.106;-1.696;2023-12-14T09:24:59;7.00;99.90
22968;DHT22;11650;48.106;-1.696;2023-12-14T09:27:24;7.20;99.90
22968;DHT22;11650;48.106;-1.696;2023-12-14T09:29:50;7.40;99.90
22968;DHT22;11650;48.106;-1.696;2023-12-14T09:32:15;7.50;99.90
22968;DHT22;11650;48.106;-1.696;2023-12-14T09:34:42;7.80;99.90
22968;DHT22;11650;48.106;-1.696;2023-12-14T09:37:08;7.80;99.90
22968;DHT22;11650;48.106;-1.696;2023-12-14T09:39:33;7.50;99.90
22968;DHT22;11650;48.106;-1.696;2023-12-14T09:42:03;7.30;99.90
22968;DHT22;11650;48.106;-1.696;2023-12-14T09:44:31;7.30;99.90
22968;DHT22;11650;48.106;-1.696;2023-12-14T09:46:58;7.20;99.90
22968;DHT22;11650;48.106;-1.696;2023-12-14T09:49:25;7.20;99.90
22968;DHT22;11650;48.106;-1.696;2023-12-14T09:51:54;7.20;99.90
22968;DHT22;11650;48.106;-1.696;2023-12-14T09:54:20;7.30;99.90
22968;DHT22;11650;48.106;-1.696;2023-12-14T09:56:46;7.30;99.90
22968;DHT22;11650;48.106;-1.696;2023-12-14T09:59:12;7.30;99.90
22968;DHT22;11650;48.106;-1.696;2023-12-14T10:01:38;7.40;99.90
22968;DHT22;11650;48.106;-1.696;2023-12-14T10:04:10;7.40;99.90
22968;DHT22;11650;48.106;-1.696;2023-12-14T10:06:37;7.40;99.90
22968;DHT22;11650;48.106;-1.696;2023-12-14T10:09:02;7.40;99.90
22968;DHT22;11650;48.106;-1.696;2023-12-14T10:11:29;7.40;99.90
22968;DHT22;11650;48.106;-1.696;2023-12-14T10:13:54;7.50;99.90
22968;DHT22;11650;48.106;-1.696;2023-12-14T10:16:30;7.50;99.90
22968;DHT22;11650;48.106;-1.696;2023-12-14T10:18:56;7.60;99.90
22968;DHT22;11650;48.106;-1.696;2023-12-14T10:21:23;7.70;99.90
22968;DHT22;11650;48.106;-1.696;2023-12-14T10:23:48;7.70;99.90
22968;DHT22;11650;48.106;-1.696;2023-12-14T10:26:15;7.80;99.90
22968;DHT22;11650;48.106;-1.696;2023-12-14T10:28:40;7.90;99.90
22968;DHT22;11650;48.106;-1.696;2023-12-14T10:31:06;7.90;99.90
22968;DHT22;11650;48.106;-1.696;2023-12-14T10:33:32;7.90;99.90
22968;DHT22;11650;48.106;-1.696;2023-12-14T10:35:57;7.90;99.90
22968;DHT22;11650;48.106;-1.696;2023-12-14T10:38:24;7.90;99.90
22968;DHT22;11650;48.106;-1.696;2023-12-14T10:40:49;7.90;99.90
22968;DHT22;11650;48.106;-1.696;2023-12-14T10:43:15;7.90;99.90
22968;DHT22;11650;48.106;-1.696;2023-12-14T10:45:41;7.90;99.90
22968;DHT22;11650;48.106;-1.696;2023-12-14T10:48:08;7.90;99.90
22968;DHT22;11650;48.106;-1.696;2023-12-14T10:50:34;7.90;99.90
22968;DHT22;11650;48.106;-1.696;2023-12-14T10:53:02;8.00;99.90
22968;DHT22;11650;48.106;-1.696;2023-12-14T10:55:40;7.90;99.90
22968;DHT22;11650;48.106;-1.696;2023-12-14T10:58:07;7.90;99.90
22968;DHT22;11650;48.106;-1.696;2023-12-14T11:00:33;7.90;99.90
22968;DHT22;11650;48.106;-1.696;2023-12-14T11:02:59;8.00;99.90
22968;DHT22;11650;48.106;-1.696;2023-12-14T11:05:27;8.10;99.90
22968;DHT22;11650;48.106;-1.696;2023-12-14T11:08:00;8.10;99.90
22968;DHT22;11650;48.106;-1.696;2023-12-14T11:10:27;8.10;99.90
22968;DHT22;11650;48.106;-1.696;2023-12-14T11:13:04;8.10;99.90
22968;DHT22;11650;48.106;-1.696;2023-12-14T11:15:33;8.10;99.90
22968;DHT22;11650;48.106;-1.696;2023-12-14T11:18:32;8.10;99.90
22968;DHT22;11650;48.106;-1.696;2023-12-14T11:20:51;8.10;99.90
22968;DHT22;11650;48.106;-1.696;2023-12-14T11:23:22;8.10;99.90
22968;DHT22;11650;48.106;-1.696;2023-12-14T11:25:52;8.10;99.90
22968;DHT22;11650;48.106;-1.696;2023-12-14T11:28:19;8.10;99.90
22968;DHT22;11650;48.106;-1.696;2023-12-14T11:30:44;8.10;99.90
22968;DHT22;11650;48.106;-1.696;2023-12-14T11:33:11;8.10;99.90
22968;DHT22;11650;48.106;-1.696;2023-12-14T11:35:36;8.10;99.90
22968;DHT22;11650;48.106;-1.696;2023-12-14T11:38:02;8.10;99.90
22968;DHT22;11650;48.106;-1.696;2023-12-14T11:40:35;8.20;99.90
22968;DHT22;11650;48.106;-1.696;2023-12-14T11:43:03;8.20;99.90
22968;DHT22;11650;48.106;-1.696;2023-12-14T11:45:33;8.30;99.90
22968;DHT22;11650;48.106;-1.696;2023-12-14T11:47:59;8.30;99.90
22968;DHT22;11650;48.106;-1.696;2023-12-14T11:50:26;8.20;99.90
22968;DHT22;11650;48.106;-1.696;2023-12-14T11:52:52;8.20;99.90
22968;DHT22;11650;48.106;-1.696;2023-12-14T11:55:18;8.20;99.90
22968;DHT22;11650;48.106;-1.696;2023-12-14T11:57:48;8.30;99.90
22968;DHT22;11650;48.106;-1.696;2023-12-14T12:00:14;8.40;99.90
22968;DHT22;11650;48.106;-1.696;2023-12-14T12:02:40;8.40;99.90
22968;DHT22;11650;48.106;-1.696;2023-12-14T12:05:06;8.40;99.90
22968;DHT22;11650;48.106;-1.696;2023-12-14T12:07:32;8.40;99.90
22968;DHT22;11650;48.106;-1.696;2023-12-14T12:09:58;8.40;99.90
22968;DHT22;11650;48.106;-1.696;2023-12-14T12:12:23;8.50;99.90
22968;DHT22;11650;48.106;-1.696;2023-12-14T12:14:49;8.60;99.90
22968;DHT22;11650;48.106;-1.696;2023-12-14T12:17:18;8.70;99.90
22968;DHT22;11650;48.106;-1.696;2023-12-14T12:19:45;8.80;99.90
22968;DHT22;11650;48.106;-1.696;2023-12-14T12:22:11;8.80;99.90
22968;DHT22;11650;48.106;-1.696;2023-12-14T12:24:36;8.70;99.90
22968;DHT22;11650;48.106;-1.696;2023-12-14T12:27:03;8.70;99.90
22968;DHT22;11650;48.106;-1.696;2023-12-14T12:29:29;8.70;99.90
22968;DHT22;11650;48.106;-1.696;2023-12-14T12:31:55;8.70;99.90
22968;DHT22;11650;48.106;-1.696;2023-12-14T12:34:20;8.70;99.90
22968;DHT22;11650;48.106;-1.696;2023-12-14T12:36:46;8.60;99.90
22968;DHT22;11650;48.106;-1.696;2023-12-14T12:39:12;8.60;99.90
22968;DHT22;11650;48.106;-1.696;2023-12-14T12:41:37;8.60;99.90
22968;DHT22;11650;48.106;-1.696;2023-12-14T12:44:04;8.70;99.90
22968;DHT22;11650;48.106;-1.696;2023-12-14T12:46:36;8.60;99.90
22968;DHT22;11650;48.106;-1.696;2023-12-14T12:49:02;8.70;99.90
22968;DHT22;11650;48.106;-1.696;2023-12-14T12:51:28;8.60;99.90
22968;DHT22;11650;48.106;-1.696;2023-12-14T12:53:55;8.70;99.90
22968;DHT22;11650;48.106;-1.696;2023-12-14T12:56:20;8.70;99.90
22968;DHT22;11650;48.106;-1.696;2023-12-14T12:58:46;8.80;99.90
22968;DHT22;11650;48.106;-1.696;2023-12-14T13:01:12;8.80;99.90
22968;DHT22;11650;48.106;-1.696;2023-12-14T13:03:37;8.80;99.90
22968;DHT22;11650;48.106;-1.696;2023-12-14T13:06:03;8.80;99.90
22968;DHT22;11650;48.106;-1.696;2023-12-14T13:08:28;8.80;99.90
22968;DHT22;11650;48.106;-1.696;2023-12-14T13:10:54;8.90;99.90
22968;DHT22;11650;48.106;-1.696;2023-12-14T13:13:19;8.90;99.90
22968;DHT22;11650;48.106;-1.696;2023-12-14T13:15:45;8.90;99.90
22968;DHT22;11650;48.106;-1.696;2023-12-14T13:18:10;9.00;99.90
22968;DHT22;11650;48.106;-1.696;2023-12-14T13:20:36;8.90;99.90
22968;DHT22;11650;48.106;-1.696;2023-12-14T13:23:01;8.90;99.90
22968;DHT22;11650;48.106;-1.696;2023-12-14T13:25:27;9.00;99.90
22968;DHT22;11650;48.106;-1.696;2023-12-14T13:27:53;9.10;99.90
22968;DHT22;11650;48.106;-1.696;2023-12-14T13:30:18;9.10;99.90
22968;DHT22;11650;48.106;-1.696;2023-12-14T13:32:46;9.10;99.90
22968;DHT22;11650;48.106;-1.696;2023-12-14T13:35:11;9.10;99.90
22968;DHT22;11650;48.106;-1.696;2023-12-14T13:37:37;9.10;99.90
22968;DHT22;11650;48.106;-1.696;2023-12-14T13:40:03;9.10;99.90
22968;DHT22;11650;48.106;-1.696;2023-12-14T13:42:29;9.10;99.90
22968;DHT22;11650;48.106;-1.696;2023-12-14T13:44:54;9.10;99.90
22968;DHT22;11650;48.106;-1.696;2023-12-14T13:47:20;9.20;99.90
22968;DHT22;11650;48.106;-1.696;2023-12-14T13:49:45;9.20;99.90
22968;DHT22;11650;48.106;-1.696;2023-12-14T13:52:11;9.30;99.90
22968;DHT22;11650;48.106;-1.696;2023-12-14T13:54:36;9.40;99.90
22968;DHT22;11650;48.106;-1.696;2023-12-14T13:57:02;9.40;99.90
22968;DHT22;11650;48.106;-1.696;2023-12-14T13:59:28;9.40;99.90
22968;DHT22;11650;48.106;-1.696;2023-12-14T14:01:53;9.50;99.90
22968;DHT22;11650;48.106;-1.696;2023-12-14T14:04:19;9.30;99.90
22968;DHT22;11650;48.106;-1.696;2023-12-14T14:06:44;9.40;99.90
22968;DHT22;11650;48.106;-1.696;2023-12-14T14:09:10;9.30;99.90
22968;DHT22;11650;48.106;-1.696;2023-12-14T14:11:36;9.30;99.90
22968;DHT22;11650;48.106;-1.696;2023-12-14T14:14:01;9.30;99.90
22968;DHT22;11650;48.106;-1.696;2023-12-14T14:16:27;9.30;99.90
22968;DHT22;11650;48.106;-1.696;2023-12-14T14:18:53;9.30;99.90
22968;DHT22;11650;48.106;-1.696;2023-12-14T14:21:20;9.40;99.90
22968;DHT22;11650;48.106;-1.696;2023-12-14T14:23:45;9.40;99.90
22968;DHT22;11650;48.106;-1.696;2023-12-14T14:26:11;9.40;99.90
22968;DHT22;11650;48.106;-1.696;2023-12-14T14:28:36;9.40;99.90
22968;DHT22;11650;48.106;-1.696;2023-12-14T14:31:02;9.40;99.90
22968;DHT22;11650;48.106;-1.696;2023-12-14T14:33:27;9.40;99.90
22968;DHT22;11650;48.106;-1.696;2023-12-14T14:35:53;9.40;99.90
22968;DHT22;11650;48.106;-1.696;2023-12-14T14:38:18;9.50;99.90
22968;DHT22;11650;48.106;-1.696;2023-12-14T14:40:44;9.50;99.90
22968;DHT22;11650;48.106;-1.696;2023-12-14T14:43:10;9.50;99.90
22968;DHT22;11650;48.106;-1.696;2023-12-14T14:45:36;9.50;99.90
22968;DHT22;11650;48.106;-1.696;2023-12-14T14:48:05;9.40;99.90
22968;DHT22;11650;48.106;-1.696;2023-12-14T14:50:31;9.40;99.90
22968;DHT22;11650;48.106;-1.696;2023-12-14T14:52:57;9.30;99.90
22968;DHT22;11650;48.106;-1.696;2023-12-14T14:55:22;9.30;99.90
22968;DHT22;11650;48.106;-1.696;2023-12-14T14:57:48;9.30;99.90
22968;DHT22;11650;48.106;-1.696;2023-12-14T15:00:13;9.20;99.90
22968;DHT22;11650;48.106;-1.696;2023-12-14T15:02:40;9.20;99.90
22968;DHT22;11650;48.106;-1.696;2023-12-14T15:05:05;9.20;99.90
22968;DHT22;11650;48.106;-1.696;2023-12-14T15:07:31;9.20;99.90
22968;DHT22;11650;48.106;-1.696;2023-12-14T15:09:56;9.10;99.90
22968;DHT22;11650;48.106;-1.696;2023-12-14T15:12:22;9.10;99.90
22968;DHT22;11650;48.106;-1.696;2023-12-14T15:14:47;9.00;99.90
22968;DHT22;11650;48.106;-1.696;2023-12-14T15:17:13;9.00;99.90
22968;DHT22;11650;48.106;-1.696;2023-12-14T15:19:39;9.00;99.90
22968;DHT22;11650;48.106;-1.696;2023-12-14T15:22:04;9.00;99.90
22968;DHT22;11650;48.106;-1.696;2023-12-14T15:24:30;9.00;99.90